Time;durP1;ratioP1;P1;durP2;ratioP2;P2;SDS_P1;SDS_P2;PMS_P1;PMS_P2;Temp;Humidity;BMP_temperature;BMP_pressure;BME280_temperature;BME280_humidity;BME280_pressure;Samples;Min_cycle;Max_cycle;Signal;HPM_P1;HPM_P2
2023/11/16 00:00:32;;;;;;;14.55;5.07;;;;;;;4.24;100.00;100773.78;5020873;28;20037;-83
2023/11/16 00:03:01;;;;;;;15.52;5.05;;;;;;;4.22;100.00;100769.59;5020751;28;20082;-83
2023/11/16 00:05:27;;;;;;;12.18;5.13;;;;;;;4.23;100.00;100766.75;5020548;28;20029;-83
2023/11/16 00:07:55;;;;;;;21.10;5.97;;;;;;;4.29;100.00;100760.09;5036485;28;20037;-83
2023/11/16 00:10:26;;;;;;;18.05;5.70;;;;;;;4.31;100.00;100760.78;5052885;28;20032;-83
2023/11/16 00:12:54;;;;;;;16.77;6.18;;;;;;;4.39;100.00;100761.81;5020154;28;20032;-83
2023/11/16 00:15:20;;;;;;;14.93;5.43;;;;;;;4.46;100.00;100755.91;5020086;28;20072;-83
2023/11/16 00:17:47;;;;;;;18.95;6.00;;;;;;;4.45;100.00;100754.25;5020050;28;20078;-83
2023/11/16 00:20:14;;;;;;;15.63;6.20;;;;;;;4.37;100.00;100763.75;5036621;28;20036;-83
2023/11/16 00:22:40;;;;;;;24.83;6.97;;;;;;;4.31;100.00;100766.09;5035521;28;20028;-83
2023/11/16 00:25:09;;;;;;;18.67;6.07;;;;;;;4.27;100.00;100762.88;5052650;28;20075;-83
2023/11/16 00:27:35;;;;;;;25.85;6.95;;;;;;;4.27;100.00;100764.69;5019894;28;20059;-83
2023/11/16 00:30:03;;;;;;;15.82;6.40;;;;;;;4.23;100.00;100758.78;5036102;28;20484;-83
2023/11/16 00:32:29;;;;;;;20.92;7.93;;;;;;;4.21;100.00;100758.09;5036171;28;20179;-83
2023/11/16 00:34:55;;;;;;;21.80;7.55;;;;;;;4.12;100.00;100742.91;5052327;28;20040;-83
2023/11/16 00:37:24;;;;;;;18.65;8.05;;;;;;;4.19;100.00;100749.41;5019821;28;20029;-83
2023/11/16 00:39:52;;;;;;;11.23;6.35;;;;;;;4.19;100.00;100747.56;5036284;28;20040;-83
2023/11/16 00:42:17;;;;;;;23.20;6.55;;;;;;;4.14;100.00;100746.28;5019914;28;20123;-83
2023/11/16 00:44:46;;;;;;;19.05;8.25;;;;;;;4.09;100.00;100740.53;5019688;28;20514;-83
2023/11/16 00:47:18;;;;;;;19.38;7.88;;;;;;;4.05;100.00;100729.31;5036139;28;20482;-83
2023/11/16 00:49:48;;;;;;;23.88;8.40;;;;;;;3.95;100.00;100726.63;5020133;28;20029;-83
2023/11/16 00:52:14;;;;;;;19.85;8.18;;;;;;;3.94;100.00;100734.72;5019755;28;20082;-83
2023/11/16 00:54:43;;;;;;;21.50;8.43;;;;;;;3.90;100.00;100743.97;5019337;28;20137;-83
2023/11/16 00:57:09;;;;;;;21.33;7.53;;;;;;;3.82;100.00;100749.94;5052556;28;20064;-83
2023/11/16 00:59:36;;;;;;;22.77;8.35;;;;;;;3.71;100.00;100747.38;5035655;28;20114;-83
2023/11/16 01:02:04;;;;;;;26.42;9.15;;;;;;;3.68;100.00;100737.00;5035788;28;20032;-83
2023/11/16 01:04:36;;;;;;;24.88;7.57;;;;;;;3.71;100.00;100729.59;5020262;28;20032;-83
2023/11/16 01:07:08;;;;;;;18.92;6.95;;;;;;;3.66;100.00;100733.63;5051936;28;20021;-83
2023/11/16 01:09:35;;;;;;;15.52;6.13;;;;;;;3.72;100.00;100735.75;5035908;28;20029;-83
2023/11/16 01:12:04;;;;;;;23.00;7.30;;;;;;;3.80;100.00;100725.28;5052215;28;20029;-83
2023/11/16 01:14:30;;;;;;;22.02;7.45;;;;;;;3.96;100.00;100720.31;5019017;28;20029;-83
2023/11/16 01:17:02;;;;;;;20.02;7.32;;;;;;;4.14;100.00;100714.38;5035389;28;20033;-83
2023/11/16 01:19:29;;;;;;;23.30;7.55;;;;;;;4.31;100.00;100712.84;5036783;28;20128;-83
2023/11/16 01:21:57;;;;;;;17.75;7.05;;;;;;;4.33;100.00;100705.59;5051785;28;20487;-82
2023/11/16 01:24:23;;;;;;;19.33;7.88;;;;;;;4.28;100.00;100697.16;5019061;28;20102;-82
2023/11/16 01:26:59;;;;;;;25.48;8.25;;;;;;;4.24;100.00;100691.28;5051746;28;20037;-82
2023/11/16 01:29:27;;;;;;;15.40;6.60;;;;;;;4.20;100.00;100689.84;5021158;28;20033;-82
2023/11/16 01:31:54;;;;;;;16.02;6.80;;;;;;;4.16;100.00;100693.78;5045825;28;20036;-82
2023/11/16 01:34:23;;;;;;;18.77;7.60;;;;;;;4.17;100.00;100692.78;5021518;28;20037;-82
2023/11/16 01:36:52;;;;;;;19.63;7.75;;;;;;;4.23;100.00;100686.09;5040337;28;20041;-82
2023/11/16 01:39:18;;;;;;;16.00;7.22;;;;;;;4.26;100.00;100676.03;5022886;28;20033;-83
2023/11/16 01:41:46;;;;;;;23.30;7.45;;;;;;;4.32;100.00;100678.13;5022931;28;20044;-82
2023/11/16 01:44:12;;;;;;;25.63;8.23;;;;;;;4.36;100.00;100666.22;5039517;28;20033;-83
2023/11/16 01:46:40;;;;;;;18.88;7.78;;;;;;;4.41;100.00;100674.63;5039506;28;20045;-82
2023/11/16 01:49:07;;;;;;;26.23;7.95;;;;;;;4.45;100.00;100669.06;5057629;28;20452;-82
2023/11/16 01:51:34;;;;;;;31.02;9.18;;;;;;;4.47;100.00;100677.72;5040304;28;20033;-83
2023/11/16 01:54:02;;;;;;;23.17;8.85;;;;;;;4.50;100.00;100677.44;5055391;28;20463;-83
2023/11/16 01:56:33;;;;;;;24.25;8.77;;;;;;;4.51;100.00;100676.47;5022705;28;20083;-83
2023/11/16 01:59:02;;;;;;;24.40;7.63;;;;;;;4.49;100.00;100668.63;5055186;28;20059;-83
2023/11/16 02:01:32;;;;;;;20.42;8.02;;;;;;;4.46;100.00;100670.72;5023654;28;20430;-83
2023/11/16 02:03:58;;;;;;;24.80;6.95;;;;;;;4.46;100.00;100660.06;5022608;28;20041;-83
2023/11/16 02:06:27;;;;;;;22.20;7.18;;;;;;;4.38;100.00;100644.78;5023417;28;20041;-82
2023/11/16 02:08:53;;;;;;;17.67;5.88;;;;;;;4.33;100.00;100663.81;5038645;28;20079;-83
2023/11/16 02:11:18;;;;;;;16.65;6.50;;;;;;;4.31;100.00;100665.81;5022158;28;20033;-83
2023/11/16 02:13:44;;;;;;;20.00;5.80;;;;;;;4.32;100.00;100667.47;5038327;28;20132;-83
2023/11/16 02:16:10;;;;;;;22.75;6.35;;;;;;;4.35;100.00;100685.84;5038752;28;20464;-83
2023/11/16 02:18:38;;;;;;;23.15;7.15;;;;;;;4.36;100.00;100676.03;5038720;28;20037;-83
2023/11/16 02:21:05;;;;;;;17.05;5.65;;;;;;;4.41;100.00;100679.94;5038760;28;20044;-82
2023/11/16 02:23:34;;;;;;;20.02;6.50;;;;;;;4.44;100.00;100675.34;5039084;28;20029;-83
2023/11/16 02:26:00;;;;;;;20.27;5.85;;;;;;;4.51;100.00;100673.81;5022057;28;20032;-83
2023/11/16 02:28:31;;;;;;;24.88;7.43;;;;;;;4.52;100.00;100670.16;5038481;28;20467;-82
2023/11/16 02:31:01;;;;;;;23.45;5.55;;;;;;;4.55;100.00;100661.88;5038807;28;20044;-83
2023/11/16 02:33:27;;;;;;;17.05;6.22;;;;;;;4.48;100.00;100664.28;5021568;28;20063;-83
2023/11/16 02:36:00;;;;;;;15.95;5.68;;;;;;;4.42;100.00;100654.19;5038378;28;20049;-82
2023/11/16 02:38:28;;;;;;;18.17;5.30;;;;;;;4.35;100.00;100659.22;5038398;28;20483;-82
2023/11/16 02:40:54;;;;;;;20.77;5.57;;;;;;;4.28;100.00;100660.75;5021811;28;20036;-83
2023/11/16 02:43:21;;;;;;;19.95;5.50;;;;;;;4.30;100.00;100664.13;5037889;28;20033;-82
2023/11/16 02:45:48;;;;;;;19.13;5.10;;;;;;;4.26;100.00;100657.41;5020340;28;20033;-82
2023/11/16 02:48:15;;;;;;;19.48;5.60;;;;;;;4.24;100.00;100662.00;5037669;28;20041;-83
2023/11/16 02:50:44;;;;;;;13.55;4.50;;;;;;;4.22;100.00;100655.97;5054606;28;20539;-82
2023/11/16 02:53:12;;;;;;;14.20;4.97;;;;;;;4.13;100.00;100654.97;5021637;28;20094;-83
2023/11/16 02:55:39;;;;;;;13.82;4.70;;;;;;;4.09;100.00;100653.56;5021654;28;20475;-82
2023/11/16 02:58:06;;;;;;;18.45;5.03;;;;;;;4.07;100.00;100644.03;5021192;28;20040;-83
2023/11/16 03:00:32;;;;;;;13.13;4.60;;;;;;;4.07;100.00;100649.34;5037904;28;20111;-82
2023/11/16 03:02:57;;;;;;;16.20;5.32;;;;;;;4.03;100.00;100642.63;5037548;28;20033;-82
2023/11/16 03:05:28;;;;;;;14.18;4.45;;;;;;;3.96;100.00;100635.19;5053996;28;20056;-83
2023/11/16 03:07:55;;;;;;;19.17;3.90;;;;;;;3.96;100.00;100652.97;5020782;28;20037;-83
2023/11/16 03:10:21;;;;;;;13.20;4.53;;;;;;;3.94;100.00;100660.22;5037450;28;20037;-83
2023/11/16 03:12:47;;;;;;;14.45;4.90;;;;;;;3.91;100.00;100652.53;5021250;28;20033;-83
2023/11/16 03:15:13;;;;;;;15.02;4.93;;;;;;;3.94;100.00;100665.56;5021097;28;20087;-83
2023/11/16 03:17:39;;;;;;;21.95;4.82;;;;;;;3.90;100.00;100653.50;5037517;28;20068;-82
2023/11/16 03:20:10;;;;;;;11.13;3.92;;;;;;;3.87;100.00;100646.66;5037234;28;20094;-83
2023/11/16 03:22:42;;;;;;;14.68;4.65;;;;;;;3.84;100.00;100643.44;5037500;28;20459;-83
2023/11/16 03:25:08;;;;;;;20.40;4.88;;;;;;;3.77;100.00;100643.09;5053999;28;20040;-83
2023/11/16 03:27:33;;;;;;;11.68;4.47;;;;;;;3.65;100.00;100638.84;5020826;28;20449;-82
2023/11/16 03:29:59;;;;;;;18.35;5.55;;;;;;;3.67;100.00;100647.53;5020637;28;20025;-83
2023/11/16 03:32:26;;;;;;;12.88;4.22;;;;;;;3.62;100.00;100644.44;5053795;28;20471;-82
2023/11/16 03:34:52;;;;;;;19.55;4.65;;;;;;;3.49;100.00;100658.81;5037541;28;20032;-83
2023/11/16 03:37:20;;;;;;;15.07;4.10;;;;;;;3.47;100.00;100658.09;5054616;28;20437;-83
2023/11/16 03:39:46;;;;;;;14.77;4.55;;;;;;;3.32;100.00;100656.75;5053893;28;20055;-83
2023/11/16 03:42:14;;;;;;;13.77;3.97;;;;;;;3.15;100.00;100660.00;5020568;28;20037;-82
2023/11/16 03:44:40;;;;;;;9.05;3.67;;;;;;;2.99;100.00;100658.66;5021008;28;20093;-83
2023/11/16 03:47:15;;;;;;;15.32;4.20;;;;;;;2.93;100.00;100651.19;5038376;28;20051;-83
2023/11/16 03:49:43;;;;;;;14.75;4.10;;;;;;;2.97;100.00;100657.09;5020358;28;20029;-83
2023/11/16 03:52:10;;;;;;;13.27;4.35;;;;;;;2.94;100.00;100652.03;5020524;28;20041;-83
2023/11/16 03:54:36;;;;;;;16.35;4.60;;;;;;;2.87;100.00;100643.75;5036987;28;20505;-83
2023/11/16 03:57:02;;;;;;;19.30;4.78;;;;;;;2.81;100.00;100644.28;5019898;28;20068;-82
2023/11/16 03:59:27;;;;;;;16.25;4.07;;;;;;;2.76;100.00;100642.00;5053100;28;20028;-83
2023/11/16 04:01:53;;;;;;;19.52;5.13;;;;;;;2.73;100.00;100641.41;5021960;28;20364;-82
2023/11/16 04:04:19;;;;;;;10.68;3.75;;;;;;;2.70;100.00;100645.19;5041057;28;20036;-82
2023/11/16 04:06:49;;;;;;;15.30;4.03;;;;;;;2.72;100.00;100647.69;5037612;28;20027;-83
2023/11/16 04:09:14;;;;;;;12.95;3.60;;;;;;;2.78;100.00;100657.78;5036835;28;20037;-83
2023/11/16 04:11:44;;;;;;;14.55;3.67;;;;;;;2.86;100.00;100658.00;5019723;28;20041;-83
2023/11/16 04:14:10;;;;;;;12.50;3.67;;;;;;;2.90;100.00;100662.06;5036032;28;20075;-82
2023/11/16 04:16:36;;;;;;;15.45;3.92;;;;;;;2.88;100.00;100648.06;5036033;28;20083;-82
2023/11/16 04:19:04;;;;;;;14.85;4.78;;;;;;;2.98;100.00;100654.31;5036507;28;20041;-83
2023/11/16 04:21:30;;;;;;;14.40;4.28;;;;;;;3.06;100.00;100659.81;5052505;28;20029;-83
2023/11/16 04:23:59;;;;;;;17.17;3.78;;;;;;;3.14;100.00;100664.47;5052452;28;20056;-83
2023/11/16 04:26:36;;;;;;;16.38;4.20;;;;;;;3.19;100.00;100658.78;5052552;28;20037;-82
2023/11/16 04:29:06;;;;;;;16.27;4.90;;;;;;;3.29;100.00;100660.53;5020934;28;20057;-82
2023/11/16 04:31:36;;;;;;;16.05;3.90;;;;;;;3.37;100.00;100661.69;5036505;28;20079;-82
2023/11/16 04:34:01;;;;;;;11.25;3.65;;;;;;;3.32;100.00;100663.91;5019774;28;20472;-82
2023/11/16 04:36:30;;;;;;;12.75;4.18;;;;;;;3.26;100.00;100660.78;5019317;28;20090;-82
2023/11/16 04:38:58;;;;;;;13.10;3.67;;;;;;;3.27;100.00;100672.25;5036522;28;20036;-82
2023/11/16 04:41:25;;;;;;;16.88;4.38;;;;;;;3.35;100.00;100666.28;5053396;28;20056;-82
2023/11/16 04:43:51;;;;;;;15.00;4.22;;;;;;;3.43;100.00;100667.31;5003125;28;20044;-83
2023/11/16 04:46:21;;;;;;;15.55;4.28;;;;;;;3.45;100.00;100662.69;5035912;28;20037;-83
2023/11/16 04:48:46;;;;;;;17.05;4.35;;;;;;;3.52;100.00;100665.69;5019313;28;20122;-83
2023/11/16 04:51:19;;;;;;;14.75;4.35;;;;;;;3.57;100.00;100673.25;5036678;28;20069;-82
2023/11/16 04:53:48;;;;;;;12.63;4.05;;;;;;;3.61;100.00;100675.50;5020225;28;20040;-83
2023/11/16 04:56:14;;;;;;;19.98;4.25;;;;;;;3.57;100.00;100665.28;5052394;28;20045;-83
2023/11/16 04:58:42;;;;;;;19.40;4.60;;;;;;;3.51;100.00;100670.13;5036031;28;20454;-82
2023/11/16 05:01:14;;;;;;;12.80;4.30;;;;;;;3.51;100.00;100679.94;5019450;28;20066;-82
2023/11/16 05:03:45;;;;;;;10.80;4.43;;;;;;;3.50;100.00;100671.13;5037205;28;20039;-82
2023/11/16 05:06:12;;;;;;;14.30;4.03;;;;;;;3.58;100.00;100664.31;5036124;28;20502;-83
2023/11/16 05:08:38;;;;;;;12.05;3.42;;;;;;;3.62;100.00;100660.41;5020688;28;20037;-83
2023/11/16 05:11:04;;;;;;;16.92;3.72;;;;;;;3.62;100.00;100665.72;5039643;28;20090;-83
2023/11/16 05:13:30;;;;;;;12.38;4.57;;;;;;;3.69;100.00;100664.22;5056259;28;20098;-83
2023/11/16 05:15:57;;;;;;;17.63;4.28;;;;;;;3.74;100.00;100670.81;5023444;28;20383;-83
2023/11/16 05:18:23;;;;;;;12.88;4.35;;;;;;;3.78;100.00;100665.22;5023464;28;20029;-83
2023/11/16 05:20:49;;;;;;;16.60;4.07;;;;;;;3.83;100.00;100673.63;5039627;28;20039;-83
2023/11/16 05:23:17;;;;;;;12.57;4.43;;;;;;;3.86;100.00;100676.88;5057079;28;20086;-82
2023/11/16 05:25:44;;;;;;;13.77;4.28;;;;;;;3.89;100.00;100686.41;5022603;28;20032;-83
2023/11/16 05:28:14;;;;;;;17.58;5.13;;;;;;;3.80;100.00;100677.41;5022953;28;20373;-82
2023/11/16 05:30:39;;;;;;;14.63;4.55;;;;;;;3.80;100.00;100680.06;5055717;28;20496;-83
2023/11/16 05:33:07;;;;;;;10.85;4.03;;;;;;;3.77;100.00;100680.34;5022989;28;20045;-82
2023/11/16 05:35:34;;;;;;;12.00;3.65;;;;;;;3.79;100.00;100683.72;5023124;28;20035;-82
2023/11/16 05:38:04;;;;;;;18.10;5.03;;;;;;;3.81;100.00;100680.91;5055981;28;20025;-83
2023/11/16 05:40:33;;;;;;;11.73;4.68;;;;;;;3.83;100.00;100674.47;5055382;28;20415;-83
2023/11/16 05:43:01;;;;;;;10.95;4.22;;;;;;;3.79;100.00;100677.56;5070570;28;20041;-82
2023/11/16 05:45:28;;;;;;;12.05;3.58;;;;;;;3.71;100.00;100672.91;5023090;28;20028;-83
2023/11/16 05:47:56;;;;;;;14.73;3.97;;;;;;;3.64;100.00;100672.59;5023121;28;20463;-83
2023/11/16 05:50:25;;;;;;;15.30;3.85;;;;;;;3.61;100.00;100680.00;5021834;28;20028;-83
2023/11/16 05:52:52;;;;;;;12.55;4.15;;;;;;;3.60;100.00;100675.63;5022790;28;20036;-83
2023/11/16 05:55:18;;;;;;;18.33;3.88;;;;;;;3.60;100.00;100671.19;5022911;28;20033;-83
2023/11/16 05:57:47;;;;;;;12.57;3.55;;;;;;;3.61;100.00;100670.19;5039221;28;20057;-83
2023/11/16 06:00:16;;;;;;;16.92;3.88;;;;;;;3.61;100.00;100669.34;5039212;28;20032;-83
2023/11/16 06:02:42;;;;;;;11.95;4.22;;;;;;;3.64;100.00;100667.28;5038436;28;20025;-83
2023/11/16 06:05:11;;;;;;;9.70;3.47;;;;;;;3.66;100.00;100675.13;5055427;28;20033;-83
2023/11/16 06:07:38;;;;;;;12.60;3.90;;;;;;;3.60;100.00;100668.53;5022767;28;20037;-82
2023/11/16 06:10:05;;;;;;;8.88;3.45;;;;;;;3.58;100.00;100677.59;5022125;28;20110;-82
2023/11/16 06:12:31;;;;;;;9.10;3.83;;;;;;;3.62;100.00;100681.66;5022430;28;20476;-84
2023/11/16 06:14:57;;;;;;;11.40;3.72;;;;;;;3.68;100.00;100678.50;5024123;28;20033;-82
2023/11/16 06:17:26;;;;;;;11.57;4.10;;;;;;;3.67;100.00;100674.13;5044794;28;20025;-83
2023/11/16 06:19:52;;;;;;;13.77;3.90;;;;;;;3.65;100.00;100670.75;5039948;28;20356;-83
2023/11/16 06:22:20;;;;;;;10.25;3.88;;;;;;;3.62;100.00;100673.69;5021742;28;20384;-82
2023/11/16 06:24:46;;;;;;;10.20;3.80;;;;;;;3.64;100.00;100669.09;5022542;28;20106;-82
2023/11/16 06:27:12;;;;;;;11.25;3.60;;;;;;;3.63;100.00;100672.72;5021508;28;20487;-82
2023/11/16 06:29:37;;;;;;;13.10;3.60;;;;;;;3.58;100.00;100661.66;5038182;28;20392;-82
2023/11/16 06:32:05;;;;;;;10.48;3.65;;;;;;;3.52;100.00;100666.53;5054680;28;20032;-83
2023/11/16 06:34:31;;;;;;;13.25;3.50;;;;;;;3.44;100.00;100665.47;5038423;28;20115;-82
2023/11/16 06:36:58;;;;;;;11.63;4.75;;;;;;;3.44;100.00;100666.34;5037911;28;20044;-83
2023/11/16 06:39:23;;;;;;;16.58;4.32;;;;;;;3.51;100.00;100672.81;5038272;28;20398;-83
2023/11/16 06:41:51;;;;;;;14.93;3.67;;;;;;;3.57;100.00;100674.09;5038618;28;20053;-83
2023/11/16 06:44:19;;;;;;;8.45;3.35;;;;;;;3.60;100.00;100678.28;5021742;28;20052;-83
2023/11/16 06:46:45;;;;;;;13.27;3.75;;;;;;;3.62;100.00;100679.00;5022218;28;20037;-83
2023/11/16 06:49:11;;;;;;;9.52;3.83;;;;;;;3.62;100.00;100671.03;5038031;28;20029;-82
2023/11/16 06:51:37;;;;;;;11.00;3.78;;;;;;;3.61;100.00;100677.34;5054081;28;20439;-82
2023/11/16 06:54:05;;;;;;;13.18;3.95;;;;;;;3.57;100.00;100676.75;5037621;28;20120;-83
2023/11/16 06:56:33;;;;;;;11.57;4.15;;;;;;;3.56;100.00;100680.38;5021717;28;20505;-83
2023/11/16 06:59:00;;;;;;;9.65;3.50;;;;;;;3.56;100.00;100687.53;5021630;28;20132;-82
2023/11/16 07:01:29;;;;;;;13.80;4.20;;;;;;;3.57;100.00;100682.06;5037637;28;20390;-83
2023/11/16 07:03:55;;;;;;;11.93;3.83;;;;;;;3.60;100.00;100672.97;5054015;28;20029;-83
2023/11/16 07:06:21;;;;;;;13.30;3.90;;;;;;;3.57;100.00;100674.09;5020990;28;20035;-83
2023/11/16 07:08:46;;;;;;;13.68;3.88;;;;;;;3.58;100.00;100669.63;5021301;28;20127;-82
2023/11/16 07:11:15;;;;;;;13.95;4.18;;;;;;;3.59;100.00;100668.66;5021249;28;20044;-82
2023/11/16 07:13:41;;;;;;;12.88;3.78;;;;;;;3.54;100.00;100663.72;5037717;28;20064;-83
2023/11/16 07:16:08;;;;;;;7.82;3.33;;;;;;;3.48;100.00;100672.22;5021111;28;20391;-82
2023/11/16 07:18:34;;;;;;;10.07;3.85;;;;;;;3.44;100.00;100671.66;5020916;28;20372;-83
2023/11/16 07:21:04;;;;;;;8.95;3.70;;;;;;;3.42;100.00;100672.78;5053788;28;20052;-83
2023/11/16 07:23:30;;;;;;;7.50;3.75;;;;;;;3.36;100.00;100663.50;5054743;28;20490;-83
2023/11/16 07:26:00;;;;;;;8.65;3.03;;;;;;;3.28;100.00;100658.84;5037276;28;20041;-83
2023/11/16 07:28:28;;;;;;;8.57;3.95;;;;;;;3.30;100.00;100672.81;5021230;28;20463;-83
2023/11/16 07:31:19;;;;;;;6.00;2.58;;;;;;;3.38;100.00;100669.50;5020329;28;20025;-82
2023/11/16 07:33:51;;;;;;;12.07;3.78;;;;;;;3.48;100.00;100669.56;5052993;28;20036;-83
2023/11/16 07:36:26;;;;;;;8.17;3.67;;;;;;;3.51;100.00;100670.13;5037539;28;20032;-83
2023/11/16 07:38:53;;;;;;;10.57;3.75;;;;;;;3.52;100.00;100669.19;5021293;28;20105;-83
2023/11/16 07:41:20;;;;;;;9.65;3.35;;;;;;;3.51;100.00;100678.13;5053284;28;20463;-83
2023/11/16 07:43:46;;;;;;;11.73;3.25;;;;;;;3.54;100.00;100677.00;5036847;28;20036;-83
2023/11/16 07:46:14;;;;;;;13.18;4.28;;;;;;;3.54;100.00;100679.66;5021369;28;20052;-83
2023/11/16 07:48:40;;;;;;;13.52;4.65;;;;;;;3.53;100.00;100681.50;5020353;28;20040;-83
2023/11/16 07:51:10;;;;;;;15.55;3.97;;;;;;;3.55;100.00;100675.19;5053333;28;20029;-83
2023/11/16 07:53:36;;;;;;;12.70;3.85;;;;;;;3.53;100.00;100676.16;5037304;28;20395;-83
2023/11/16 07:56:06;;;;;;;10.60;3.40;;;;;;;3.50;100.00;100681.75;5052863;28;20472;-83
2023/11/16 07:58:35;;;;;;;8.98;3.50;;;;;;;3.52;100.00;100681.63;5020344;28;20129;-83
2023/11/16 08:01:04;;;;;;;10.40;3.60;;;;;;;3.55;100.00;100688.47;5020268;28;20476;-82
2023/11/16 08:03:42;;;;;;;12.70;3.45;;;;;;;3.61;100.00;100696.78;5053158;28;20403;-82
2023/11/16 08:06:15;;;;;;;9.48;4.00;;;;;;;3.68;100.00;100691.78;5020565;28;20502;-82
2023/11/16 08:08:45;;;;;;;11.40;3.40;;;;;;;3.72;100.00;100699.34;5021592;28;20028;-82
2023/11/16 08:11:14;;;;;;;9.32;3.40;;;;;;;3.77;100.00;100698.97;5052681;28;20025;-82
2023/11/16 08:13:41;;;;;;;10.98;4.35;;;;;;;3.71;100.00;100689.69;5020298;28;20113;-82
2023/11/16 08:16:09;;;;;;;6.40;3.53;;;;;;;3.81;100.00;100703.06;5036047;28;20111;-83
2023/11/16 08:18:38;;;;;;;10.30;3.67;;;;;;;3.88;100.00;100714.81;5019717;28;20387;-82
2023/11/16 08:21:09;;;;;;;9.43;3.90;;;;;;;3.93;100.00;100715.25;5035616;28;20094;-81
2023/11/16 08:23:39;;;;;;;11.63;3.83;;;;;;;3.99;100.00;100710.38;5020241;28;20070;-82
2023/11/16 08:26:10;;;;;;;10.10;3.55;;;;;;;4.02;100.00;100713.59;5036868;28;20048;-82
2023/11/16 08:28:40;;;;;;;14.88;3.67;;;;;;;4.05;100.00;100715.16;5052604;28;20033;-82
2023/11/16 08:31:12;;;;;;;6.93;3.22;;;;;;;4.09;100.00;100717.41;5019925;28;20438;-82
2023/11/16 08:33:39;;;;;;;10.77;3.97;;;;;;;4.13;100.00;100723.34;5029516;28;20114;-83
2023/11/16 08:36:10;;;;;;;12.63;4.28;;;;;;;4.16;100.00;100729.22;5036712;28;20044;-82
2023/11/16 08:38:42;;;;;;;13.18;3.72;;;;;;;4.20;100.00;100727.13;5020122;28;20040;-84
2023/11/16 08:41:17;;;;;;;14.18;4.15;;;;;;;4.22;100.00;100725.16;5020312;28;20090;-83
2023/11/16 08:43:47;;;;;;;8.30;4.20;;;;;;;4.26;100.00;100723.94;5036725;28;20037;-84
2023/11/16 08:46:20;;;;;;;14.18;4.63;;;;;;;4.32;100.00;100723.38;5020238;28;20037;-84
2023/11/16 08:48:47;;;;;;;13.77;4.95;;;;;;;4.35;100.00;100722.28;5020128;28;20091;-83
2023/11/16 08:51:15;;;;;;;17.25;5.65;;;;;;;4.44;100.00;100725.91;5019759;28;20124;-84
2023/11/16 08:53:43;;;;;;;13.00;4.70;;;;;;;4.47;100.00;100730.97;5036240;28;20029;-84
2023/11/16 08:56:09;;;;;;;15.05;5.05;;;;;;;4.52;100.00;100723.41;5035282;28;20128;-83
2023/11/16 08:58:44;;;;;;;16.65;4.93;;;;;;;4.55;100.00;100729.31;5019046;28;20072;-85
2023/11/16 09:01:18;;;;;;;15.88;4.85;;;;;;;4.63;100.00;100742.78;5021340;28;20040;-86
2023/11/16 09:03:51;;;;;;;14.52;4.78;;;;;;;4.66;100.00;100736.34;5036313;28;20387;-86
2023/11/16 09:06:19;;;;;;;13.93;4.90;;;;;;;4.72;100.00;100735.78;5020776;28;20041;-85
2023/11/16 09:08:56;;;;;;;22.65;6.60;;;;;;;4.81;100.00;100737.59;5036226;28;20036;-86
2023/11/16 09:11:27;;;;;;;12.80;4.50;;;;;;;4.88;100.00;100734.41;5053226;28;20029;-86
2023/11/16 09:13:53;;;;;;;15.07;5.05;;;;;;;4.97;100.00;100739.72;5052949;28;20078;-86
2023/11/16 09:16:19;;;;;;;13.07;3.97;;;;;;;5.04;100.00;100740.00;5035537;28;20029;-86
2023/11/16 09:18:45;;;;;;;16.58;4.32;;;;;;;5.11;100.00;100750.94;5035788;28;20025;-85
2023/11/16 09:21:14;;;;;;;17.38;7.30;;;;;;;5.19;100.00;100751.09;5051638;28;20029;-84
2023/11/16 09:23:41;;;;;;;12.88;4.63;;;;;;;5.28;100.00;100756.41;5019488;28;20475;-85
2023/11/16 09:26:09;;;;;;;15.18;4.45;;;;;;;5.37;100.00;100744.06;5035676;28;20082;-86
2023/11/16 09:28:38;;;;;;;33.42;11.48;;;;;;;5.52;100.00;100744.44;5052058;28;20110;-87
2023/11/16 09:31:10;;;;;;;46.95;17.13;;;;;;;5.62;100.00;100744.44;5052344;28;20025;-86
2023/11/16 09:33:38;;;;;;;42.22;15.90;;;;;;;5.73;100.00;100753.09;5019950;28;20127;-87
2023/11/16 09:36:08;;;;;;;46.25;16.20;;;;;;;5.82;100.00;100751.41;5035588;28;20052;-87
2023/11/16 09:38:34;;;;;;;42.95;19.13;;;;;;;5.92;100.00;100746.84;5052029;28;20040;-86
2023/11/16 09:41:16;;;;;;;26.48;12.88;;;;;;;6.05;100.00;100746.56;5018988;28;20385;-86
2023/11/16 09:43:50;;;;;;;37.47;17.67;;;;;;;6.20;100.00;100754.09;5035192;28;20055;-85
2023/11/16 09:46:19;;;;;;;26.80;14.68;;;;;;;6.33;100.00;100743.94;5019657;28;20124;-85
2023/11/16 09:48:46;;;;;;;73.53;37.95;;;;;;;6.51;100.00;100742.13;5018969;28;20036;-85
2023/11/16 09:51:13;;;;;;;76.80;37.63;;;;;;;6.70;100.00;100735.81;5017719;28;20036;-85
2023/11/16 09:53:43;;;;;;;45.22;20.85;;;;;;;6.88;100.00;100730.50;5034990;28;20040;-84
2023/11/16 09:56:09;;;;;;;46.33;22.80;;;;;;;7.11;100.00;100735.38;5023006;28;20040;-84
2023/11/16 09:58:39;;;;;;;51.80;25.92;;;;;;;7.37;100.00;100733.56;5021801;28;20025;-85
2023/11/16 10:01:10;;;;;;;52.33;26.70;;;;;;;7.58;100.00;100733.22;5022945;28;20468;-85
2023/11/16 10:03:40;;;;;;;35.47;18.20;;;;;;;7.68;100.00;100725.09;5039768;28;20195;-84
2023/11/16 10:06:09;;;;;;;36.92;15.10;;;;;;;7.75;100.00;100731.47;5038971;28;20044;-83
2023/11/16 10:08:39;;;;;;;18.05;7.05;;;;;;;7.76;100.00;100732.34;5022579;28;20041;-82
2023/11/16 10:11:05;;;;;;;23.67;9.77;;;;;;;7.78;100.00;100747.25;5022522;28;20036;-84
2023/11/16 10:13:35;;;;;;;17.80;4.65;;;;;;;7.76;100.00;100743.06;5022232;28;20397;-85
2023/11/16 10:16:03;;;;;;;9.88;3.72;;;;;;;7.82;100.00;100745.91;5022651;28;20486;-85
2023/11/16 10:18:35;;;;;;;15.10;3.38;;;;;;;8.08;100.00;100739.72;5039003;28;20041;-83
2023/11/16 10:21:08;;;;;;;12.57;3.70;;;;;;;8.22;100.00;100746.28;5022403;28;20033;-84
2023/11/16 10:23:34;;;;;;;12.60;3.22;;;;;;;8.21;100.00;100747.31;5038925;28;20035;-86
2023/11/16 10:26:02;;;;;;;16.92;3.55;;;;;;;8.14;100.00;100736.38;5022060;28;20368;-86
2023/11/16 10:28:35;;;;;;;11.50;3.45;;;;;;;8.11;100.00;100742.91;5022447;28;20065;-87
2023/11/16 10:31:07;;;;;;;11.18;3.17;;;;;;;8.10;100.00;100751.94;5055128;28;20116;-85
2023/11/16 10:33:34;;;;;;;13.47;3.60;;;;;;;8.05;100.00;100750.75;5038730;28;20033;-86
2023/11/16 10:36:00;;;;;;;7.97;3.70;;;;;;;8.07;100.00;100741.56;5038393;28;20025;-84
2023/11/16 10:38:28;;;;;;;12.68;3.53;;;;;;;8.20;100.00;100751.81;5037694;28;20029;-87
2023/11/16 10:40:56;;;;;;;8.02;3.25;;;;;;;8.46;100.00;100746.41;5022271;28;20037;-85
2023/11/16 10:43:27;;;;;;;9.93;3.72;;;;;;;8.62;100.00;100751.00;5038911;28;20036;-87
2023/11/16 10:45:58;;;;;;;12.20;3.75;;;;;;;8.62;100.00;100747.47;5038228;28;20028;-87
2023/11/16 10:48:25;;;;;;;11.43;3.47;;;;;;;8.49;100.00;100748.75;5037720;28;20032;-86
2023/11/16 10:50:52;;;;;;;10.23;3.22;;;;;;;8.37;100.00;100742.84;5021267;28;20483;-86
2023/11/16 10:53:23;;;;;;;11.27;3.80;;;;;;;8.23;100.00;100751.50;5020163;28;20402;-86
2023/11/16 10:55:57;;;;;;;10.02;2.78;;;;;;;8.12;100.00;100749.09;5052412;28;20032;-86
2023/11/16 10:58:27;;;;;;;15.23;4.10;;;;;;;8.11;100.00;100737.53;5037226;28;20043;-86
2023/11/16 11:01:07;;;;;;;14.02;3.35;;;;;;;8.13;100.00;100748.09;5054254;28;20100;-87
2023/11/16 11:03:35;;;;;;;14.55;6.28;;;;;;;8.08;100.00;100734.34;5008715;28;20525;-87
2023/11/16 11:06:04;;;;;;;9.25;3.78;;;;;;;8.18;100.00;100745.78;5053911;28;20025;-87
2023/11/16 11:08:38;;;;;;;11.73;3.30;;;;;;;8.14;100.00;100747.09;5034701;28;20036;-86
2023/11/16 11:11:08;;;;;;;11.25;3.55;;;;;;;8.07;100.00;100740.69;5071401;28;20079;-86
2023/11/16 11:13:43;;;;;;;10.00;2.88;;;;;;;8.06;100.00;100744.38;5060382;28;20119;-88
2023/11/16 11:16:12;;;;;;;8.38;2.65;;;;;;;8.16;100.00;100739.75;5055023;28;20104;-88
2023/11/16 11:18:51;;;;;;;11.30;2.70;;;;;;;8.30;100.00;100736.44;5021674;28;20064;-87
2023/11/16 11:21:27;;;;;;;7.03;3.28;;;;;;;8.39;100.00;100740.06;5022074;28;20119;-86